createdAt,value
2023-11-09T00:01:53.605Z,10.80
2023-11-09T00:04:27.212Z,9.60
2023-11-09T00:07:01.171Z,8.00
2023-11-09T00:09:34.843Z,10.00
2023-11-09T00:12:12.018Z,9.30
2023-11-09T00:14:45.466Z,11.00
2023-11-09T00:17:20.840Z,9.40
2023-11-09T00:19:54.482Z,8.50
2023-11-09T00:22:28.075Z,12.10
2023-11-09T00:25:01.667Z,10.80
2023-11-09T00:27:35.130Z,10.10
2023-11-09T00:30:10.495Z,9.70
2023-11-09T00:32:44.217Z,8.70
2023-11-09T00:35:20.769Z,11.60
2023-11-09T00:37:54.499Z,10.00
2023-11-09T00:40:28.014Z,8.10
2023-11-09T00:43:01.681Z,9.70
2023-11-09T00:45:35.954Z,10.60
2023-11-09T00:48:10.331Z,10.90
2023-11-09T00:50:43.849Z,10.80
2023-11-09T00:53:17.584Z,12.90
2023-11-09T00:55:51.319Z,11.00
2023-11-09T00:58:25.217Z,14.10
2023-11-09T01:00:59.781Z,9.80
2023-11-09T01:03:33.272Z,9.50
2023-11-09T01:06:08.765Z,11.00
2023-11-09T01:08:43.065Z,11.80
2023-11-09T01:11:23.033Z,9.70
2023-11-09T01:13:58.677Z,10.70
2023-11-09T01:16:32.259Z,12.60
2023-11-09T01:19:06.267Z,9.90
2023-11-09T01:21:39.986Z,9.20
2023-11-09T01:24:14.214Z,11.20
2023-11-09T01:26:48.131Z,11.40
2023-11-09T01:29:23.178Z,11.90
2023-11-09T01:31:58.987Z,14.60
2023-11-09T01:34:33.075Z,15.90
2023-11-09T01:37:12.067Z,13.30
2023-11-09T01:39:46.628Z,15.10
2023-11-09T01:42:20.198Z,11.90
2023-11-09T01:44:53.785Z,11.00
2023-11-09T01:47:28.952Z,11.60
2023-11-09T01:50:03.470Z,12.30
2023-11-09T01:52:38.132Z,13.70
2023-11-09T01:55:13.592Z,11.50
2023-11-09T01:57:47.536Z,13.90
2023-11-09T02:00:21.799Z,12.90
2023-11-09T02:02:56.237Z,13.10
2023-11-09T02:05:30.063Z,11.80
2023-11-09T02:08:04.664Z,10.10
2023-11-09T02:10:38.540Z,11.80
2023-11-09T02:13:15.374Z,14.30
2023-11-09T02:15:49.236Z,11.30
2023-11-09T02:18:23.230Z,12.90
2023-11-09T02:20:57.222Z,12.10
2023-11-09T02:23:38.862Z,11.00
2023-11-09T02:26:13.325Z,11.50
2023-11-09T02:28:51.206Z,12.40
2023-11-09T02:31:25.760Z,13.20
2023-11-09T02:33:59.483Z,12.40
2023-11-09T02:36:33.108Z,11.70
2023-11-09T02:39:07.287Z,13.10
2023-11-09T02:41:40.876Z,12.50
2023-11-09T02:44:14.399Z,12.70
2023-11-09T02:46:47.817Z,12.20
2023-11-09T02:49:21.396Z,14.20
2023-11-09T02:51:55.417Z,15.70
2023-11-09T02:54:29.145Z,14.00
2023-11-09T02:57:02.868Z,15.20
2023-11-09T02:59:36.323Z,13.50
2023-11-09T03:02:10.042Z,12.90
2023-11-09T03:04:43.550Z,13.50
2023-11-09T03:07:17.290Z,14.30
2023-11-09T03:09:50.928Z,12.80
2023-11-09T03:12:24.400Z,13.90
2023-11-09T03:14:57.835Z,12.50
2023-11-09T03:17:31.337Z,13.40
2023-11-09T03:20:05.570Z,13.00
2023-11-09T03:22:39.058Z,13.50
2023-11-09T03:25:13.465Z,13.30
2023-11-09T03:27:48.223Z,11.80
2023-11-09T03:30:22.529Z,12.20
2023-11-09T03:32:56.078Z,13.60
2023-11-09T03:35:29.497Z,14.30
2023-11-09T03:38:02.917Z,13.00
2023-11-09T03:40:36.444Z,13.80
2023-11-09T03:43:10.021Z,12.70
2023-11-09T03:45:43.489Z,15.50
2023-11-09T03:48:17.111Z,15.00
2023-11-09T03:50:50.919Z,12.60
2023-11-09T03:53:24.470Z,13.10
2023-11-09T03:55:57.998Z,13.40
2023-11-09T03:58:32.139Z,14.10
2023-11-09T04:01:05.820Z,15.20
2023-11-09T04:03:39.452Z,13.60
2023-11-09T04:06:19.100Z,13.50
2023-11-09T04:08:52.693Z,14.10
2023-11-09T04:11:27.580Z,15.00
2023-11-09T04:14:00.996Z,13.60
2023-11-09T04:16:35.584Z,14.10
2023-11-09T04:19:09.736Z,12.20
2023-11-09T04:21:43.241Z,12.30
2023-11-09T04:24:17.036Z,11.90
2023-11-09T04:26:50.583Z,14.90
2023-11-09T04:29:25.216Z,12.10
2023-11-09T04:31:58.694Z,15.20
2023-11-09T04:34:36.108Z,13.30
2023-11-09T04:37:13.117Z,15.00
2023-11-09T04:39:48.066Z,12.70
2023-11-09T04:42:25.293Z,15.60
2023-11-09T04:45:00.332Z,14.90
2023-11-09T04:47:34.773Z,13.60
2023-11-09T04:50:15.258Z,14.20
2023-11-09T04:52:58.453Z,13.50
2023-11-09T04:55:44.093Z,14.60
2023-11-09T04:58:35.624Z,14.80
2023-11-09T05:01:26.891Z,15.20
2023-11-09T05:04:17.932Z,15.00
2023-11-09T05:06:53.137Z,14.70
2023-11-09T05:09:28.948Z,14.50
2023-11-09T05:12:02.903Z,62.30
2023-11-09T05:14:36.890Z,28.70
2023-11-09T05:17:10.795Z,23.20
2023-11-09T05:19:45.624Z,22.00
2023-11-09T05:22:19.261Z,14.60
2023-11-09T05:24:54.086Z,18.10
2023-11-09T05:27:28.577Z,20.30
2023-11-09T05:30:02.020Z,17.70
2023-11-09T05:32:36.528Z,20.80
2023-11-09T05:35:18.331Z,18.60
2023-11-09T05:37:52.690Z,16.60
2023-11-09T05:40:27.925Z,15.40
2023-11-09T05:43:01.434Z,17.70
2023-11-09T05:45:34.997Z,14.40
2023-11-09T05:48:09.317Z,18.00
2023-11-09T05:50:42.861Z,18.70
2023-11-09T05:53:17.048Z,17.60
2023-11-09T05:55:51.089Z,21.60
2023-11-09T05:58:24.780Z,18.20
2023-11-09T06:00:58.314Z,20.00
2023-11-09T06:03:31.908Z,17.30
2023-11-09T06:06:05.880Z,16.40
2023-11-09T06:08:39.322Z,16.60
2023-11-09T06:11:14.872Z,20.60
2023-11-09T06:13:49.124Z,18.50
2023-11-09T06:16:23.190Z,18.00
2023-11-09T06:18:57.462Z,16.00
2023-11-09T06:21:31.055Z,18.20
2023-11-09T06:24:04.727Z,19.20
2023-11-09T06:26:38.313Z,20.20
2023-11-09T06:29:12.180Z,16.60
2023-11-09T06:31:45.885Z,17.70
2023-11-09T06:34:19.503Z,18.10
2023-11-09T06:36:53.026Z,18.20
2023-11-09T06:39:26.747Z,17.90
2023-11-09T06:42:00.404Z,15.90
2023-11-09T06:44:34.291Z,19.10
2023-11-09T06:47:08.243Z,18.00
2023-11-09T06:49:41.914Z,14.60
2023-11-09T06:52:15.872Z,19.30
2023-11-09T06:54:49.875Z,15.40
2023-11-09T06:57:23.500Z,17.20
2023-11-09T06:59:57.112Z,20.50
2023-11-09T07:02:30.725Z,17.40
2023-11-09T07:05:07.964Z,19.80
2023-11-09T07:07:41.976Z,18.20
2023-11-09T07:10:17.052Z,16.70
2023-11-09T07:12:50.751Z,23.20
2023-11-09T07:15:25.928Z,16.70
2023-11-09T07:18:00.241Z,20.20
2023-11-09T07:20:34.625Z,17.20
2023-11-09T07:23:08.962Z,17.50
2023-11-09T07:25:43.502Z,19.20
2023-11-09T07:28:16.880Z,15.90
2023-11-09T07:30:52.895Z,18.60
2023-11-09T07:33:26.385Z,16.20
2023-11-09T07:36:00.580Z,19.40
2023-11-09T07:38:34.166Z,16.70
2023-11-09T07:41:07.738Z,17.30
2023-11-09T07:43:41.133Z,22.60
2023-11-09T07:46:14.670Z,22.00
2023-11-09T07:48:48.181Z,17.30
2023-11-09T07:51:24.868Z,17.50
2023-11-09T07:53:58.490Z,18.00
2023-11-09T07:56:31.817Z,12.40
2023-11-09T07:59:05.549Z,14.40
2023-11-09T08:01:39.307Z,15.60
2023-11-09T08:04:13.548Z,14.20
2023-11-09T08:06:48.046Z,14.50
2023-11-09T08:09:22.871Z,14.00
2023-11-09T08:11:56.675Z,16.80
2023-11-09T08:14:30.204Z,14.80
2023-11-09T08:17:03.892Z,14.90
2023-11-09T08:19:38.063Z,12.90
2023-11-09T08:22:11.622Z,16.60
2023-11-09T08:24:45.464Z,13.80
2023-11-09T08:27:22.539Z,16.50
2023-11-09T08:29:57.811Z,13.00
2023-11-09T08:32:31.522Z,15.60
2023-11-09T08:35:10.635Z,13.00
2023-11-09T08:37:45.095Z,15.70
2023-11-09T08:40:19.522Z,15.50
2023-11-09T08:42:55.077Z,15.40
2023-11-09T08:45:30.700Z,13.40
2023-11-09T08:48:06.249Z,17.00
2023-11-09T08:50:41.355Z,12.30
2023-11-09T08:53:15.051Z,14.70
2023-11-09T08:55:48.880Z,10.60
2023-11-09T08:58:22.275Z,17.60
2023-11-09T09:00:55.908Z,12.60
2023-11-09T09:03:29.425Z,11.60
2023-11-09T09:06:05.440Z,14.50
2023-11-09T09:08:39.057Z,12.70
2023-11-09T09:11:12.884Z,9.00
2023-11-09T09:13:46.341Z,37.50
2023-11-09T09:16:20.257Z,14.30
2023-11-09T09:18:53.876Z,15.30
2023-11-09T09:21:28.435Z,14.10
2023-11-09T09:24:04.195Z,10.90
2023-11-09T09:26:38.444Z,12.80
2023-11-09T09:29:11.938Z,10.30
2023-11-09T09:31:45.334Z,11.00
2023-11-09T09:34:26.682Z,12.50
2023-11-09T09:37:00.659Z,12.00
2023-11-09T09:39:34.054Z,11.90
2023-11-09T09:42:09.573Z,9.70
2023-11-09T09:44:44.503Z,13.20
2023-11-09T09:47:18.053Z,10.50
2023-11-09T09:49:54.763Z,7.90
2023-11-09T09:52:28.664Z,10.40
2023-11-09T09:55:02.316Z,11.40
2023-11-09T09:57:36.321Z,7.90
2023-11-09T10:00:14.994Z,8.80
2023-11-09T10:05:21.076Z,9.30
2023-11-09T10:08:05.944Z,7.60
2023-11-09T10:10:42.710Z,12.00
2023-11-09T10:13:16.668Z,9.00
2023-11-09T10:15:59.032Z,6.70
2023-11-09T10:18:35.209Z,18.20
2023-11-09T10:21:13.984Z,8.00
2023-11-09T10:23:55.358Z,13.40
2023-11-09T10:26:41.529Z,8.20
2023-11-09T10:29:18.816Z,15.80
2023-11-09T10:31:53.205Z,13.30
2023-11-09T10:34:30.983Z,7.20
2023-11-09T10:37:04.682Z,19.40
2023-11-09T10:39:43.909Z,8.00
2023-11-09T10:42:18.504Z,8.60
2023-11-09T10:44:53.498Z,8.00
2023-11-09T10:47:28.503Z,10.00
2023-11-09T10:50:14.669Z,12.40
2023-11-09T10:52:51.045Z,8.40
2023-11-09T10:55:25.682Z,9.00
2023-11-09T10:58:06.586Z,13.10
2023-11-09T11:00:43.830Z,8.80
2023-11-09T11:03:29.111Z,7.00
2023-11-09T11:06:06.578Z,8.80
2023-11-09T11:08:44.555Z,5.90
2023-11-09T11:11:25.680Z,7.00
2023-11-09T11:14:03.971Z,8.70
2023-11-09T11:16:53.912Z,4.30
2023-11-09T11:20:18.817Z,7.60
2023-11-09T11:23:22.986Z,5.20
2023-11-09T11:26:07.223Z,5.50
2023-11-09T11:28:42.364Z,6.80
2023-11-09T11:31:17.011Z,7.90
2023-11-09T11:33:53.209Z,5.10
2023-11-09T11:36:34.793Z,6.70
2023-11-09T11:39:37.743Z,5.70
2023-11-09T11:42:26.733Z,5.80
2023-11-09T11:45:00.707Z,4.90
2023-11-09T11:47:36.766Z,6.00
2023-11-09T11:50:12.000Z,6.60
2023-11-09T11:52:51.245Z,19.60
2023-11-09T11:55:30.290Z,7.50
2023-11-09T11:58:08.703Z,22.90
2023-11-09T12:00:45.005Z,9.50
2023-11-09T12:03:19.764Z,8.40
2023-11-09T12:06:14.336Z,6.90
2023-11-09T12:08:56.857Z,8.00
2023-11-09T12:11:35.197Z,6.10
2023-11-09T12:14:09.928Z,6.70
2023-11-09T12:16:43.761Z,7.70
2023-11-09T12:19:18.289Z,10.00
2023-11-09T12:21:52.850Z,6.70
2023-11-09T12:24:27.560Z,8.80
2023-11-09T12:27:09.863Z,4.10
2023-11-09T12:29:44.328Z,5.60
2023-11-09T12:32:20.140Z,13.00
2023-11-09T12:34:55.244Z,4.70
2023-11-09T12:37:33.475Z,3.80
2023-11-09T12:40:09.019Z,5.70
2023-11-09T12:42:45.942Z,7.00
2023-11-09T12:45:19.581Z,5.70
2023-11-09T12:47:53.059Z,7.10
2023-11-09T12:50:31.418Z,11.10
2023-11-09T12:53:06.677Z,4.10
2023-11-09T12:55:40.609Z,5.20
2023-11-09T12:58:14.545Z,4.30
2023-11-09T13:00:48.435Z,3.80
2023-11-09T13:03:22.448Z,5.30
2023-11-09T13:05:56.144Z,5.10
2023-11-09T13:08:29.586Z,4.40
2023-11-09T13:11:03.805Z,6.10
2023-11-09T13:13:37.975Z,5.00
2023-11-09T13:16:15.866Z,4.10
2023-11-09T13:18:53.104Z,5.90
2023-11-09T13:21:29.352Z,3.40
2023-11-09T13:24:02.830Z,5.00
2023-11-09T13:26:36.545Z,4.10
2023-11-09T13:29:12.619Z,4.00
2023-11-09T13:31:46.302Z,4.60
2023-11-09T13:34:24.900Z,4.40
2023-11-09T13:36:59.454Z,4.50
2023-11-09T13:39:51.605Z,5.10
2023-11-09T13:42:38.216Z,4.50
2023-11-09T13:45:36.105Z,4.70
2023-11-09T13:50:48.188Z,3.50
2023-11-09T13:53:39.740Z,6.70
2023-11-09T13:56:29.980Z,5.90
2023-11-09T13:59:13.689Z,4.50
2023-11-09T14:01:52.246Z,7.10
2023-11-09T14:04:26.212Z,3.70
2023-11-09T14:07:00.280Z,3.50
2023-11-09T14:09:35.518Z,3.60
2023-11-09T14:12:11.147Z,5.60
2023-11-09T14:14:49.484Z,3.10
2023-11-09T14:17:30.007Z,3.50
2023-11-09T14:20:13.905Z,7.70
2023-11-09T14:22:48.706Z,5.00
2023-11-09T14:25:23.582Z,5.20
2023-11-09T14:27:59.298Z,4.90
2023-11-09T14:30:33.751Z,3.40
2023-11-09T14:33:09.205Z,4.10
2023-11-09T14:35:44.153Z,8.20
2023-11-09T14:38:21.232Z,6.20
2023-11-09T14:40:57.904Z,7.10
2023-11-09T14:43:34.705Z,7.00
2023-11-09T14:46:15.039Z,6.60
2023-11-09T14:48:51.732Z,8.10
2023-11-09T14:51:25.907Z,4.40
2023-11-09T14:54:02.088Z,8.50
2023-11-09T14:56:35.705Z,6.20
2023-11-09T14:59:13.037Z,4.60
2023-11-09T15:01:46.803Z,3.30
2023-11-09T15:04:22.583Z,5.30
2023-11-09T15:07:01.304Z,4.80
2023-11-09T15:09:36.528Z,5.20
2023-11-09T15:12:10.604Z,4.30
2023-11-09T15:14:44.718Z,4.80
2023-11-09T15:17:18.500Z,5.00
2023-11-09T15:19:51.992Z,6.40
2023-11-09T15:22:26.189Z,3.80
2023-11-09T15:24:59.849Z,4.10
2023-11-09T15:27:33.291Z,3.30
2023-11-09T15:30:09.580Z,3.90
2023-11-09T15:32:43.759Z,5.20
2023-11-09T15:35:18.506Z,4.20
2023-11-09T15:37:52.281Z,3.40
2023-11-09T15:41:09.745Z,4.50
2023-11-09T15:43:20.467Z,4.10
2023-11-09T15:45:56.535Z,3.80
2023-11-09T15:48:32.204Z,4.80
2023-11-09T15:51:05.867Z,3.50
2023-11-09T15:53:43.486Z,3.60
2023-11-09T15:56:17.344Z,2.90
2023-11-09T15:58:50.983Z,4.00
2023-11-09T16:01:24.932Z,3.30
2023-11-09T16:03:58.768Z,5.30
2023-11-09T16:06:33.986Z,3.00
2023-11-09T16:09:12.977Z,5.20
2023-11-09T16:11:48.014Z,3.40
2023-11-09T16:14:21.570Z,6.10
2023-11-09T16:16:55.139Z,3.40
2023-11-09T16:19:28.931Z,3.50
2023-11-09T16:22:04.542Z,3.90
2023-11-09T16:24:43.504Z,4.30
2023-11-09T16:27:18.310Z,3.60
2023-11-09T16:29:51.833Z,5.80
2023-11-09T16:32:25.631Z,5.20
2023-11-09T16:34:59.334Z,4.90
2023-11-09T16:37:32.900Z,5.20
2023-11-09T16:40:08.129Z,5.40
2023-11-09T16:42:42.224Z,5.30
2023-11-09T16:45:16.715Z,5.20
2023-11-09T16:47:53.604Z,5.70
2023-11-09T16:50:27.482Z,6.50
2023-11-09T16:53:01.305Z,8.70
2023-11-09T16:55:35.479Z,7.80
2023-11-09T16:58:09.253Z,6.50
2023-11-09T17:00:42.862Z,6.50
2023-11-09T17:03:16.929Z,6.60
2023-11-09T17:05:51.716Z,9.30
2023-11-09T17:08:25.995Z,7.60
2023-11-09T17:11:00.173Z,6.30
2023-11-09T17:13:34.834Z,7.10
2023-11-09T17:16:10.249Z,6.50
2023-11-09T17:18:44.472Z,10.00
2023-11-09T17:21:17.855Z,8.40
2023-11-09T17:23:51.328Z,7.70
2023-11-09T17:26:26.240Z,8.90
2023-11-09T17:29:00.356Z,9.20
2023-11-09T17:31:34.053Z,7.20
2023-11-09T17:34:07.649Z,10.00
2023-11-09T17:36:42.780Z,8.80
2023-11-09T17:39:17.006Z,10.20
2023-11-09T17:41:52.781Z,9.70
2023-11-09T17:44:26.496Z,9.80
2023-11-09T17:47:00.185Z,11.70
2023-11-09T17:49:33.959Z,10.60
2023-11-09T17:52:08.921Z,10.10
2023-11-09T17:54:42.566Z,13.10
2023-11-09T17:57:16.059Z,8.90
2023-11-09T17:59:49.548Z,7.70
2023-11-09T18:02:23.638Z,10.10
2023-11-09T18:04:57.181Z,9.30
2023-11-09T18:07:30.767Z,9.90
2023-11-09T18:10:04.249Z,12.80
2023-11-09T18:12:38.084Z,9.50
2023-11-09T18:15:15.868Z,8.70
2023-11-09T18:17:49.387Z,8.90
2023-11-09T18:20:22.809Z,7.80
2023-11-09T18:22:56.451Z,9.70
2023-11-09T18:25:31.677Z,8.30
2023-11-09T18:28:06.172Z,10.10
2023-11-09T18:30:40.368Z,12.50
2023-11-09T18:33:13.875Z,9.80
2023-11-09T18:35:48.676Z,11.10
2023-11-09T18:38:22.121Z,8.80
2023-11-09T18:40:55.596Z,12.00
2023-11-09T18:43:29.182Z,12.30
2023-11-09T18:46:02.782Z,16.30
2023-11-09T18:48:36.308Z,12.60
2023-11-09T18:51:10.100Z,12.20
2023-11-09T18:53:43.542Z,11.30
2023-11-09T18:56:18.766Z,8.80
2023-11-09T18:58:52.391Z,11.20
2023-11-09T19:01:26.231Z,11.80
2023-11-09T19:06:36.544Z,14.00
2023-11-09T19:09:10.676Z,12.10
2023-11-09T19:11:44.533Z,12.90
2023-11-09T19:14:18.256Z,12.70
2023-11-09T19:16:51.809Z,15.30
2023-11-09T19:19:25.475Z,12.30
2023-11-09T19:24:36.138Z,11.10
2023-11-09T19:27:09.734Z,15.90
2023-11-09T19:29:44.788Z,15.30
2023-11-09T19:32:18.369Z,16.60
2023-11-09T19:34:51.972Z,14.50
2023-11-09T19:37:25.362Z,14.70
2023-11-09T19:40:00.252Z,17.50
2023-11-09T19:42:34.205Z,17.90
2023-11-09T19:45:09.935Z,19.90
2023-11-09T19:47:44.965Z,18.90
2023-11-09T19:50:22.316Z,18.00
2023-11-09T19:52:55.813Z,20.80
2023-11-09T19:55:29.371Z,18.50
2023-11-09T19:58:05.598Z,18.00
2023-11-09T20:00:40.157Z,20.70
2023-11-09T20:03:13.913Z,23.10
2023-11-09T20:05:47.557Z,20.60
2023-11-09T20:08:21.927Z,21.80
2023-11-09T20:10:55.356Z,24.40
2023-11-09T20:13:29.444Z,22.40
2023-11-09T20:16:02.935Z,24.30
2023-11-09T20:18:36.574Z,22.60
2023-11-09T20:21:13.248Z,27.70
2023-11-09T20:23:46.680Z,23.90
2023-11-09T20:26:22.916Z,25.70
2023-11-09T20:28:56.532Z,18.80
2023-11-09T20:31:30.044Z,17.60
2023-11-09T20:34:03.577Z,17.80
2023-11-09T20:36:37.141Z,17.10
2023-11-09T20:39:12.693Z,16.30
2023-11-09T20:41:46.821Z,15.80
2023-11-09T20:44:20.808Z,17.00
2023-11-09T20:46:54.240Z,16.60
2023-11-09T20:49:27.762Z,15.40
2023-11-09T20:52:01.452Z,16.80
2023-11-09T20:54:38.162Z,13.20
2023-11-09T20:57:13.334Z,17.60
2023-11-09T20:59:46.800Z,13.20
2023-11-09T21:02:20.266Z,15.50
2023-11-09T21:04:53.657Z,13.50
2023-11-09T21:07:27.099Z,16.00
2023-11-09T21:10:00.567Z,15.30
2023-11-09T21:12:34.409Z,14.80
2023-11-09T21:15:09.810Z,15.10
2023-11-09T21:17:44.643Z,14.60
2023-11-09T21:20:18.754Z,15.20
2023-11-09T21:22:52.287Z,17.70
2023-11-09T21:25:26.242Z,29.30
2023-11-09T21:28:02.136Z,27.50
2023-11-09T21:30:36.088Z,25.20
2023-11-09T21:33:09.775Z,27.50
2023-11-09T21:35:43.506Z,25.70
2023-11-09T21:38:17.055Z,29.70
2023-11-09T21:40:51.614Z,29.30
2023-11-09T21:43:25.119Z,28.80
2023-11-09T21:45:58.719Z,28.10
2023-11-09T21:48:32.375Z,30.70
2023-11-09T21:51:06.159Z,28.60
2023-11-09T21:53:39.773Z,30.80
2023-11-09T21:56:13.531Z,28.20
2023-11-09T21:58:47.002Z,30.40
2023-11-09T22:01:20.525Z,29.00
2023-11-09T22:03:54.082Z,30.00
2023-11-09T22:06:27.659Z,27.90
2023-11-09T22:09:01.824Z,32.60
2023-11-09T22:11:36.876Z,27.40
2023-11-09T22:14:10.588Z,30.80
2023-11-09T22:16:45.725Z,31.50
2023-11-09T22:19:20.132Z,27.40
2023-11-09T22:21:53.672Z,24.90
2023-11-09T22:24:29.890Z,26.10
2023-11-09T22:27:05.750Z,24.60
2023-11-09T22:29:39.818Z,28.10
2023-11-09T22:32:14.428Z,28.60
2023-11-09T22:34:47.956Z,26.40
2023-11-09T22:37:21.668Z,25.50
2023-11-09T22:39:55.328Z,23.30
2023-11-09T22:42:28.900Z,21.90
2023-11-09T22:45:02.822Z,23.50
2023-11-09T22:47:36.529Z,24.20
2023-11-09T22:50:12.989Z,20.90
2023-11-09T22:52:47.907Z,23.00
2023-11-09T22:55:21.512Z,22.30
2023-11-09T22:57:55.069Z,25.20
2023-11-09T23:00:37.012Z,20.20
2023-11-09T23:03:11.561Z,21.80
2023-11-09T23:05:45.571Z,24.00
2023-11-09T23:08:20.583Z,23.20
2023-11-09T23:10:54.467Z,23.40
2023-11-09T23:13:29.512Z,22.20
2023-11-09T23:16:03.264Z,21.30
2023-11-09T23:18:36.820Z,23.60
2023-11-09T23:21:10.839Z,21.90
2023-11-09T23:23:44.636Z,18.30
2023-11-09T23:26:18.467Z,19.50
2023-11-09T23:28:51.964Z,19.60
2023-11-09T23:31:26.169Z,18.90
2023-11-09T23:34:02.144Z,20.90
2023-11-09T23:36:36.023Z,20.80
2023-11-09T23:39:10.371Z,20.40
2023-11-09T23:41:43.902Z,19.20
2023-11-09T23:44:17.389Z,17.80
2023-11-09T23:46:50.901Z,19.40
2023-11-09T23:49:24.438Z,19.70
2023-11-09T23:51:57.898Z,20.00
2023-11-09T23:54:31.474Z,16.70
2023-11-09T23:57:05.294Z,18.50
2023-11-09T23:59:38.785Z,20.70
